createdAt,value
2022-08-05T00:01:35.686Z,18.78
2022-08-05T00:04:08.189Z,18.77
2022-08-05T00:06:37.211Z,18.87
2022-08-05T00:09:13.166Z,18.92
2022-08-05T00:11:48.666Z,18.86
2022-08-05T00:14:19.386Z,18.82
2022-08-05T00:16:52.082Z,18.97
2022-08-05T00:19:23.459Z,19.10
2022-08-05T00:21:54.177Z,19.07
2022-08-05T00:24:24.796Z,19.13
2022-08-05T00:27:01.289Z,19.15
2022-08-05T00:29:38.188Z,19.22
2022-08-05T00:32:14.947Z,19.09
2022-08-05T00:35:05.710Z,19.02
2022-08-05T00:37:50.542Z,19.09
2022-08-05T00:40:26.723Z,18.96
2022-08-05T00:43:01.710Z,18.94
2022-08-05T00:45:38.587Z,18.87
2022-08-05T00:48:10.155Z,19.03
2022-08-05T00:50:41.411Z,18.95
2022-08-05T00:54:01.431Z,18.86
2022-08-05T00:56:01.849Z,18.81
2022-08-05T00:58:31.710Z,18.70
2022-08-05T01:01:00.615Z,18.80
2022-08-05T01:03:30.833Z,18.80
2022-08-05T01:06:02.594Z,18.89
2022-08-05T01:08:42.997Z,18.68
2022-08-05T01:11:22.399Z,18.66
2022-08-05T01:14:04.074Z,18.64
2022-08-05T01:16:49.230Z,18.57
2022-08-05T01:19:46.225Z,18.55
2022-08-05T01:22:28.032Z,18.58
2022-08-05T01:25:11.226Z,18.47
2022-08-05T01:28:16.140Z,18.13
2022-08-05T01:30:53.771Z,17.95
2022-08-05T01:33:29.557Z,17.71
2022-08-05T01:36:13.146Z,17.69
2022-08-05T01:38:48.425Z,17.56
2022-08-05T01:41:22.567Z,17.77
2022-08-05T01:43:56.697Z,17.65
2022-08-05T01:46:42.560Z,17.63
2022-08-05T01:49:23.000Z,17.58
2022-08-05T01:51:58.013Z,17.53
2022-08-05T01:54:33.285Z,17.62
2022-08-05T01:58:11.439Z,17.54
2022-08-05T01:59:59.536Z,17.41
2022-08-05T02:02:30.813Z,17.26
2022-08-05T02:05:03.115Z,17.32
2022-08-05T02:07:33.697Z,17.29
2022-08-05T02:10:04.990Z,17.20
2022-08-05T02:12:44.346Z,17.14
2022-08-05T02:15:33.258Z,17.11
2022-08-05T02:18:27.510Z,17.05
2022-08-05T02:21:02.503Z,17.03
2022-08-05T02:23:37.650Z,16.97
2022-08-05T02:26:10.574Z,17.03
2022-08-05T02:28:45.732Z,17.01
2022-08-05T02:31:28.362Z,16.99
2022-08-05T02:34:00.700Z,17.01
2022-08-05T02:36:31.396Z,17.20
2022-08-05T02:39:02.805Z,17.24
2022-08-05T02:41:43.415Z,17.15
2022-08-05T02:44:26.816Z,17.12
2022-08-05T02:47:00.459Z,16.94
2022-08-05T02:49:36.813Z,17.01
2022-08-05T02:52:09.110Z,16.96
2022-08-05T02:54:42.290Z,16.93
2022-08-05T02:58:10.420Z,16.88
2022-08-05T03:00:04.736Z,16.94
2022-08-05T03:02:38.225Z,16.84
2022-08-05T03:05:11.459Z,16.83
2022-08-05T03:08:07.065Z,16.83
2022-08-05T03:10:31.332Z,17.02
2022-08-05T03:15:28.167Z,16.96
2022-08-05T03:17:59.516Z,16.97
2022-08-05T03:20:28.295Z,16.97
2022-08-05T03:22:58.085Z,17.01
2022-08-05T03:25:33.445Z,16.95
2022-08-05T03:28:18.544Z,17.07
2022-08-05T03:30:49.624Z,17.12
2022-08-05T03:33:22.224Z,17.10
2022-08-05T03:36:01.129Z,17.16
2022-08-05T03:38:33.393Z,17.13
2022-08-05T03:41:10.703Z,17.21
2022-08-05T03:44:08.789Z,17.17
2022-08-05T03:46:29.977Z,17.17
2022-08-05T03:49:02.492Z,17.10
2022-08-05T03:52:37.528Z,17.07
2022-08-05T03:55:51.303Z,17.06
2022-08-05T03:57:41.940Z,17.11
2022-08-05T04:00:16.028Z,17.15
2022-08-05T04:02:57.789Z,17.11
2022-08-05T04:05:34.681Z,17.13
2022-08-05T04:08:29.618Z,17.17
2022-08-05T04:10:55.503Z,17.20
2022-08-05T04:13:24.609Z,17.27
2022-08-05T04:16:04.199Z,17.35
2022-08-05T04:18:34.543Z,17.34
2022-08-05T04:21:06.007Z,17.38
2022-08-05T04:24:01.709Z,17.37
2022-08-05T04:26:25.662Z,17.37
2022-08-05T04:29:07.203Z,17.41
2022-08-05T04:31:38.574Z,17.39
2022-08-05T04:34:31.369Z,17.44
2022-08-05T04:36:58.343Z,17.44
2022-08-05T04:39:27.605Z,17.45
2022-08-05T04:41:56.377Z,17.49
2022-08-05T04:44:30.247Z,17.50
2022-08-05T04:46:59.617Z,17.57
2022-08-05T04:49:39.196Z,17.67
2022-08-05T04:52:18.795Z,17.74
2022-08-05T04:54:49.405Z,17.76
2022-08-05T04:57:18.390Z,17.86
2022-08-05T04:59:48.152Z,17.88
2022-08-05T05:02:36.103Z,17.83
2022-08-05T05:05:26.139Z,17.85
2022-08-05T05:08:01.879Z,17.87
2022-08-05T05:10:33.394Z,17.79
2022-08-05T05:13:04.238Z,17.80
2022-08-05T05:15:56.452Z,17.75
2022-08-05T05:18:31.362Z,17.77
2022-08-05T05:21:03.786Z,17.84
2022-08-05T05:23:39.398Z,18.01
2022-08-05T05:26:28.532Z,18.06
2022-08-05T05:29:02.743Z,18.10
2022-08-05T05:31:46.475Z,18.06
2022-08-05T05:34:15.651Z,18.16
2022-08-05T05:36:47.097Z,18.41
2022-08-05T05:39:21.140Z,18.65
2022-08-05T05:41:54.523Z,19.08
2022-08-05T05:44:36.229Z,19.22
2022-08-05T05:47:07.737Z,18.96
2022-08-05T05:49:56.531Z,19.12
2022-08-05T05:52:33.185Z,18.82
2022-08-05T05:55:13.340Z,18.46
2022-08-05T05:57:52.550Z,18.50
2022-08-05T06:00:31.424Z,18.51
2022-08-05T06:03:03.290Z,18.57
2022-08-05T06:05:53.971Z,18.37
2022-08-05T06:08:31.805Z,18.37
2022-08-05T06:11:02.859Z,18.41
2022-08-05T06:13:40.683Z,18.42
2022-08-05T06:16:28.840Z,18.26
2022-08-05T06:19:01.093Z,18.28
2022-08-05T06:21:37.000Z,18.35
2022-08-05T06:24:11.721Z,18.44
2022-08-05T06:26:45.864Z,18.37
2022-08-05T06:29:42.982Z,18.39
2022-08-05T06:32:25.565Z,18.50
2022-08-05T06:34:56.414Z,18.27
2022-08-05T06:37:57.963Z,18.22
2022-08-05T06:40:18.468Z,18.08
2022-08-05T06:42:52.864Z,18.08
2022-08-05T06:45:44.595Z,18.19
2022-08-05T06:48:54.812Z,18.18
2022-08-05T06:51:09.533Z,18.12
2022-08-05T06:53:39.519Z,18.19
2022-08-05T06:56:25.865Z,18.20
2022-08-05T06:58:58.392Z,18.31
2022-08-05T07:01:32.758Z,18.28
2022-08-05T07:04:03.026Z,18.33
2022-08-05T07:06:32.286Z,18.38
2022-08-05T07:09:04.138Z,18.43
2022-08-05T07:11:36.790Z,18.39
2022-08-05T07:14:29.303Z,18.37
2022-08-05T07:17:59.792Z,18.41
2022-08-05T07:22:43.190Z,18.41
2022-08-05T07:25:22.459Z,18.36
2022-08-05T07:27:57.566Z,18.52
2022-08-05T07:30:34.756Z,18.44
2022-08-05T07:33:10.661Z,18.51
2022-08-05T07:36:03.791Z,18.43
2022-08-05T07:38:42.498Z,18.42
2022-08-05T07:42:08.121Z,18.23
2022-08-05T07:44:03.879Z,18.20
2022-08-05T07:46:35.163Z,18.02
2022-08-05T07:49:06.179Z,17.96
2022-08-05T07:51:48.538Z,17.81
2022-08-05T07:54:31.391Z,17.68
2022-08-05T07:57:16.709Z,17.91
2022-08-05T07:59:53.456Z,17.86
2022-08-05T08:02:31.336Z,17.83
2022-08-05T08:05:17.613Z,17.75
2022-08-05T08:07:59.617Z,17.67
2022-08-05T08:10:30.107Z,17.66
2022-08-05T08:12:59.219Z,17.61
2022-08-05T08:16:34.423Z,17.68
2022-08-05T08:18:22.185Z,17.77
2022-08-05T08:21:02.390Z,17.79
2022-08-05T08:24:01.160Z,17.76
2022-08-05T08:26:26.890Z,17.85
2022-08-05T08:29:09.806Z,17.86
2022-08-05T08:31:48.824Z,17.91
2022-08-05T08:34:18.979Z,17.83
2022-08-05T08:37:05.003Z,17.80
2022-08-05T08:39:37.806Z,17.80
2022-08-05T08:42:32.557Z,17.83
2022-08-05T08:45:24.750Z,18.04
2022-08-05T08:48:10.697Z,18.02
2022-08-05T08:51:03.885Z,17.81
2022-08-05T08:53:37.598Z,17.73
2022-08-05T08:56:09.318Z,17.79
2022-08-05T08:58:44.409Z,17.80
2022-08-05T09:01:17.953Z,17.97
2022-08-05T09:03:55.071Z,18.08
2022-08-05T09:06:31.300Z,18.17
2022-08-05T09:09:02.757Z,18.08
2022-08-05T09:11:52.477Z,17.99
2022-08-05T09:14:58.277Z,18.01
2022-08-05T09:17:41.265Z,17.87
2022-08-05T09:20:04.832Z,17.62
2022-08-05T09:23:07.918Z,17.48
2022-08-05T09:26:03.155Z,17.53
2022-08-05T09:28:32.215Z,17.57
2022-08-05T09:31:44.124Z,17.55
2022-08-05T09:33:58.734Z,17.51
2022-08-05T09:36:54.621Z,17.56
2022-08-05T09:39:39.262Z,17.77
2022-08-05T09:42:23.550Z,17.81
2022-08-05T09:44:56.126Z,17.75
2022-08-05T09:47:35.186Z,17.94
2022-08-05T09:50:38.951Z,18.07
2022-08-05T09:53:12.015Z,18.07
2022-08-05T09:56:04.777Z,17.94
2022-08-05T09:58:33.645Z,17.88
2022-08-05T10:01:13.565Z,17.86
2022-08-05T10:03:59.623Z,17.90
2022-08-05T10:06:32.574Z,17.77
2022-08-05T10:09:27.987Z,17.85
2022-08-05T10:12:18.742Z,17.86
2022-08-05T10:15:17.284Z,17.61
2022-08-05T10:18:10.544Z,17.59
2022-08-05T10:20:42.808Z,17.88
2022-08-05T10:23:34.400Z,18.01
2022-08-05T10:26:07.034Z,17.85
2022-08-05T10:28:37.526Z,17.90
2022-08-05T10:32:55.701Z,17.88
2022-08-05T10:33:56.933Z,17.88
2022-08-05T10:36:28.145Z,17.91
2022-08-05T10:39:05.261Z,17.98
2022-08-05T10:41:48.565Z,18.01
2022-08-05T10:44:21.779Z,18.06
2022-08-05T10:46:54.194Z,18.09
2022-08-05T10:49:33.230Z,18.00
2022-08-05T10:52:05.233Z,18.16
2022-08-05T10:55:02.886Z,18.39
2022-08-05T10:57:34.033Z,18.32
2022-08-05T11:00:19.071Z,18.28
2022-08-05T11:03:25.673Z,18.24
2022-08-05T11:06:15.732Z,18.22
2022-08-05T11:09:39.263Z,18.22
2022-08-05T11:12:50.467Z,18.22
2022-08-05T11:16:00.824Z,18.42
2022-08-05T11:18:32.443Z,18.63
2022-08-05T11:21:11.784Z,18.71
2022-08-05T11:24:04.140Z,19.12
2022-08-05T11:26:33.847Z,19.54
2022-08-05T11:29:11.357Z,20.06
2022-08-05T11:31:53.931Z,20.50
2022-08-05T11:34:50.918Z,20.37
2022-08-05T11:38:30.136Z,20.92
2022-08-05T11:41:02.755Z,20.78
2022-08-05T11:44:04.444Z,20.55
2022-08-05T11:46:35.386Z,20.53
2022-08-05T11:49:08.032Z,20.99
2022-08-05T11:51:44.293Z,21.35
2022-08-05T11:54:33.876Z,21.33
2022-08-05T11:57:08.723Z,21.21
2022-08-05T11:59:53.355Z,21.12
2022-08-05T12:02:31.721Z,21.63
2022-08-05T12:05:07.041Z,21.33
2022-08-05T12:08:07.429Z,21.17
2022-08-05T12:10:43.731Z,21.84
2022-08-05T12:13:47.430Z,22.41
2022-08-05T12:16:14.449Z,23.99
2022-08-05T12:18:52.219Z,23.23
2022-08-05T12:21:26.822Z,22.92
2022-08-05T12:24:07.186Z,23.07
2022-08-05T12:26:38.135Z,22.38
2022-08-05T12:29:09.641Z,22.63
2022-08-05T12:31:48.212Z,22.59
2022-08-05T12:34:25.974Z,22.96
2022-08-05T12:36:58.170Z,23.50
2022-08-05T12:39:34.743Z,25.80
2022-08-05T12:42:14.873Z,25.42
2022-08-05T12:44:45.906Z,24.73
2022-08-05T12:47:28.703Z,23.26
2022-08-05T12:50:04.252Z,23.18
2022-08-05T12:52:38.768Z,23.11
2022-08-05T12:55:23.801Z,22.47
2022-08-05T12:58:50.693Z,22.66
2022-08-05T13:02:02.595Z,22.41
2022-08-05T13:03:41.497Z,22.74
2022-08-05T13:06:16.499Z,22.87
2022-08-05T13:08:51.762Z,22.99
2022-08-05T13:11:25.647Z,23.53
2022-08-05T13:14:24.689Z,23.98
2022-08-05T13:17:10.162Z,24.29
2022-08-05T13:19:52.433Z,23.43
2022-08-05T13:22:28.086Z,23.24
2022-08-05T13:25:05.552Z,22.78
2022-08-05T13:27:37.999Z,23.19
2022-08-05T13:30:35.686Z,24.61
2022-08-05T13:33:01.262Z,25.25
2022-08-05T13:35:47.497Z,26.30
2022-08-05T13:38:31.028Z,27.39
2022-08-05T13:41:06.395Z,27.41
2022-08-05T13:43:45.266Z,27.05
2022-08-05T13:46:38.005Z,25.06
2022-08-05T13:49:13.646Z,23.89
2022-08-05T13:51:46.409Z,23.15
2022-08-05T13:54:21.178Z,22.85
2022-08-05T13:56:55.399Z,22.35
2022-08-05T13:59:26.952Z,21.97
2022-08-05T14:01:58.166Z,23.24
2022-08-05T14:04:49.933Z,25.48
2022-08-05T14:07:26.175Z,24.51
2022-08-05T14:10:12.341Z,23.32
2022-08-05T14:12:48.417Z,22.40
2022-08-05T14:16:07.366Z,23.25
2022-08-05T14:18:15.304Z,24.10
2022-08-05T14:20:48.618Z,24.72
2022-08-05T14:23:24.902Z,23.64
2022-08-05T14:25:58.650Z,23.71
2022-08-05T14:28:30.408Z,24.17
2022-08-05T14:31:01.422Z,24.93
2022-08-05T14:33:56.643Z,25.19
2022-08-05T14:36:21.635Z,25.64
2022-08-05T14:38:51.909Z,24.96
2022-08-05T14:41:21.126Z,25.65
2022-08-05T14:44:01.511Z,25.32
2022-08-05T14:46:35.194Z,25.94
2022-08-05T14:49:07.351Z,25.47
2022-08-05T14:51:38.279Z,25.43
2022-08-05T14:54:29.918Z,24.69
2022-08-05T14:56:56.704Z,24.78
2022-08-05T14:59:29.585Z,25.32
2022-08-05T15:02:14.721Z,24.95
2022-08-05T15:04:47.753Z,24.94
2022-08-05T15:08:04.555Z,24.84
2022-08-05T15:10:09.842Z,25.33
2022-08-05T15:13:00.442Z,25.62
2022-08-05T15:15:54.216Z,25.33
2022-08-05T15:18:18.458Z,25.06
2022-08-05T15:20:47.328Z,24.89
2022-08-05T15:23:16.319Z,25.04
2022-08-05T15:25:53.761Z,25.19
2022-08-05T15:28:27.852Z,25.17
2022-08-05T15:30:58.076Z,23.45
2022-08-05T15:34:18.524Z,24.46
2022-08-05T15:36:24.054Z,24.38
2022-08-05T15:40:41.604Z,24.71
2022-08-05T15:41:58.083Z,24.26
2022-08-05T15:44:30.195Z,24.24
2022-08-05T15:47:03.724Z,24.26
2022-08-05T15:49:48.289Z,23.39
2022-08-05T15:52:51.721Z,23.54
2022-08-05T15:55:15.514Z,24.72
2022-08-05T15:57:45.960Z,24.08
2022-08-05T16:00:32.652Z,23.81
2022-08-05T16:03:08.847Z,24.57
2022-08-05T16:05:38.983Z,25.00
2022-08-05T16:08:10.279Z,24.92
2022-08-05T16:10:44.631Z,25.18
2022-08-05T16:13:23.497Z,24.78
2022-08-05T16:15:52.844Z,24.27
2022-08-05T16:18:28.071Z,23.75
2022-08-05T16:20:59.762Z,23.71
2022-08-05T16:23:32.946Z,24.12
2022-08-05T16:26:26.546Z,24.11
2022-08-05T16:28:56.349Z,24.27
2022-08-05T16:31:25.094Z,24.75
2022-08-05T16:33:55.385Z,24.47
2022-08-05T16:36:24.150Z,24.28
2022-08-05T16:38:55.510Z,23.82
2022-08-05T16:42:27.733Z,23.55
2022-08-05T16:44:15.025Z,23.18
2022-08-05T16:46:56.099Z,24.01
2022-08-05T16:49:26.561Z,23.94
2022-08-05T16:51:58.338Z,24.06
2022-08-05T16:54:32.816Z,24.33
2022-08-05T16:57:02.092Z,23.20
2022-08-05T16:59:31.049Z,23.32
2022-08-05T17:01:59.802Z,23.14
2022-08-05T17:04:31.391Z,23.23
2022-08-05T17:07:01.821Z,22.98
2022-08-05T17:09:57.612Z,23.04
2022-08-05T17:12:22.553Z,23.56
2022-08-05T17:15:10.532Z,23.84
2022-08-05T17:17:44.489Z,23.60
2022-08-05T17:20:14.883Z,22.20
2022-08-05T17:22:45.018Z,22.36
2022-08-05T17:25:33.945Z,22.93
2022-08-05T17:28:02.287Z,23.27
2022-08-05T17:30:31.004Z,23.98
2022-08-05T17:32:59.569Z,23.31
2022-08-05T17:35:32.604Z,23.78
2022-08-05T17:38:18.076Z,23.73
2022-08-05T17:40:46.663Z,22.48
2022-08-05T17:43:18.122Z,22.55
2022-08-05T17:46:07.122Z,22.00
2022-08-05T17:48:38.923Z,22.38
2022-08-05T17:51:09.505Z,22.50
2022-08-05T17:53:38.139Z,22.57
2022-08-05T17:56:09.509Z,21.91
2022-08-05T17:58:39.530Z,21.50
2022-08-05T18:01:09.973Z,20.78
2022-08-05T18:03:58.898Z,20.47
2022-08-05T18:06:31.105Z,20.17
2022-08-05T18:09:00.252Z,21.02
2022-08-05T18:11:33.457Z,20.90
2022-08-05T18:14:06.721Z,20.23
2022-08-05T18:16:46.760Z,20.35
2022-08-05T18:19:22.866Z,20.08
2022-08-05T18:22:09.418Z,19.62
2022-08-05T18:24:40.619Z,19.48
2022-08-05T18:27:18.599Z,19.44
2022-08-05T18:29:53.458Z,19.17
2022-08-05T18:32:28.368Z,19.09
2022-08-05T18:34:58.422Z,18.75
2022-08-05T18:37:34.184Z,18.62
2022-08-05T18:41:50.491Z,18.70
2022-08-05T18:42:58.439Z,18.59
2022-08-05T18:45:41.000Z,18.39
2022-08-05T18:48:11.408Z,18.44
2022-08-05T18:52:02.484Z,18.26
2022-08-05T18:53:50.502Z,18.10
2022-08-05T18:56:21.743Z,17.88
2022-08-05T18:58:52.867Z,17.88
2022-08-05T19:01:47.230Z,17.80
2022-08-05T19:04:24.113Z,17.60
2022-08-05T19:06:53.451Z,17.57
2022-08-05T19:09:23.807Z,17.85
2022-08-05T19:12:00.015Z,17.55
2022-08-05T19:14:59.518Z,17.41
2022-08-05T19:17:18.113Z,17.27
2022-08-05T19:19:48.640Z,17.30
2022-08-05T19:22:17.848Z,17.09
2022-08-05T19:24:55.899Z,17.04
2022-08-05T19:27:27.875Z,17.03
2022-08-05T19:29:59.433Z,17.03
2022-08-05T19:32:28.332Z,17.09
2022-08-05T19:34:57.827Z,16.92
2022-08-05T19:37:34.885Z,16.81
2022-08-05T19:40:17.742Z,16.90
2022-08-05T19:43:05.053Z,16.79
2022-08-05T19:45:36.749Z,16.80
2022-08-05T19:48:06.775Z,16.71
2022-08-05T19:50:43.567Z,16.68
2022-08-05T19:53:12.497Z,16.62
2022-08-05T19:56:15.703Z,16.64
2022-08-05T19:58:31.731Z,16.69
2022-08-05T20:01:28.382Z,16.51
2022-08-05T20:03:57.447Z,16.48
2022-08-05T20:06:28.705Z,16.41
2022-08-05T20:09:00.885Z,16.40
2022-08-05T20:11:48.255Z,16.36
2022-08-05T20:14:26.725Z,16.29
2022-08-05T20:16:58.481Z,16.21
2022-08-05T20:19:36.137Z,16.23
2022-08-05T20:22:09.884Z,16.24
2022-08-05T20:24:38.775Z,16.16
2022-08-05T20:27:11.154Z,16.14
2022-08-05T20:29:40.997Z,16.10
2022-08-05T20:32:10.222Z,16.14
2022-08-05T20:34:39.002Z,16.03
2022-08-05T20:37:18.101Z,16.10
2022-08-05T20:39:59.530Z,16.12
2022-08-05T20:42:29.756Z,16.16
2022-08-05T20:44:58.423Z,16.09
2022-08-05T20:47:32.172Z,16.05
2022-08-05T20:50:02.519Z,16.01
2022-08-05T20:52:35.421Z,15.91
2022-08-05T20:55:54.946Z,15.98
2022-08-05T20:57:54.612Z,15.82
2022-08-05T21:00:44.096Z,15.93
2022-08-05T21:03:16.671Z,15.79
2022-08-05T21:05:54.693Z,15.75
2022-08-05T21:08:33.160Z,15.75
2022-08-05T21:11:11.804Z,15.69
2022-08-05T21:13:55.590Z,15.73
2022-08-05T21:16:29.127Z,15.68
2022-08-05T21:19:00.896Z,15.63
2022-08-05T21:21:39.830Z,15.35
2022-08-05T21:24:20.055Z,15.26
2022-08-05T21:26:53.444Z,15.55
2022-08-05T21:29:32.356Z,15.51
2022-08-05T21:32:03.477Z,15.44
2022-08-05T21:34:35.631Z,15.31
2022-08-05T21:37:04.801Z,15.21
2022-08-05T21:39:34.841Z,15.35
2022-08-05T21:42:19.742Z,15.18
2022-08-05T21:45:01.269Z,15.11
2022-08-05T21:47:55.957Z,15.06
2022-08-05T21:50:20.237Z,15.02
2022-08-05T21:52:51.135Z,15.15
2022-08-05T21:56:01.022Z,14.99
2022-08-05T21:58:11.661Z,14.85
2022-08-05T22:00:42.102Z,14.85
2022-08-05T22:03:53.226Z,14.84
2022-08-05T22:06:09.910Z,14.80
2022-08-05T22:08:42.789Z,14.75
2022-08-05T22:11:15.419Z,14.69
2022-08-05T22:14:06.283Z,14.59
2022-08-05T22:16:51.511Z,14.56
2022-08-05T22:19:57.430Z,14.64
2022-08-05T22:22:10.312Z,14.66
2022-08-05T22:24:56.399Z,14.62
2022-08-05T22:28:09.914Z,14.52
2022-08-05T22:30:34.938Z,14.50
2022-08-05T22:33:15.514Z,14.50
2022-08-05T22:35:48.760Z,14.54
2022-08-05T22:38:18.869Z,14.39
2022-08-05T22:40:54.771Z,14.39
2022-08-05T22:43:37.411Z,14.36
2022-08-05T22:46:13.640Z,14.40
2022-08-05T22:48:53.572Z,14.31
2022-08-05T22:51:30.039Z,14.39
2022-08-05T22:54:11.162Z,14.24
2022-08-05T22:56:40.594Z,14.24
2022-08-05T22:59:44.293Z,14.27
2022-08-05T23:02:05.871Z,14.28
2022-08-05T23:04:39.083Z,14.25
2022-08-05T23:07:08.188Z,14.22
2022-08-05T23:09:57.977Z,14.24
2022-08-05T23:12:25.892Z,14.24
2022-08-05T23:14:57.519Z,14.39
2022-08-05T23:17:32.796Z,14.35
2022-08-05T23:20:10.546Z,14.34
2022-08-05T23:22:48.496Z,14.36
2022-08-05T23:25:51.003Z,14.26
2022-08-05T23:28:07.891Z,14.29
2022-08-05T23:30:40.280Z,14.28
2022-08-05T23:33:16.055Z,14.29
2022-08-05T23:35:56.223Z,14.29
2022-08-05T23:38:26.132Z,14.21
2022-08-05T23:40:55.656Z,14.25
2022-08-05T23:44:05.820Z,14.19
2022-08-05T23:46:20.146Z,14.06
2022-08-05T23:49:01.171Z,14.05
2022-08-05T23:51:52.504Z,14.10
2022-08-05T23:54:25.607Z,13.97
2022-08-05T23:57:03.359Z,13.88
2022-08-05T23:59:37.561Z,13.79
